Terminal Aerodrome Forecast
Issued by NWS

Home | Current Version | Previous Version | Graphics & Text | Print | Product List | Glossary On
Versions: 1 2 3 4 5 6 7 8 9 10 11 12 13 14
707
FTUS43 KMPX 191125
TAFAXN
TAF
KAXN 191125Z 1912/2012 21006KT P6SM BKN250
     FM191800 24008KT P6SM BKN200
     FM192100 27009KT P6SM BKN200
     FM200400 28006KT P6SM BKN120=

USA.gov is the U.S. government's official web portal to all federal, state and local government web resources and services.